Hauptseite
METAR-TAF:

METAR-TAF

Flughäfen :

Exeter International Airport

Exeter, England

Breite: 50-44N, Länge: 003-25W, Höhe: 30 m

Beobachtung

Neuester Wetterbericht von vor 14 Minuten, um 11:20 UTC
Wind 4 kt aus unterschiedlichen Richtungen
Temperatur 23°C
Luftfeuchtigkeit 47%
Luftdruck 1019 hPa
Sichtweite 10 km oder mehr
Leicht bewölkt in der Höhe von 3500 ft

METAR: EGTE 191120Z VRB04KT 9999 FEW035 23/11 Q1019

Zeit: 12:34 (11:34 UTC)

Prognose

Neuester Wetterbericht von vor 3 Stunden und 35 Minuten, um 07:59 UTC
Gültige Prognose vom 19 um 09 UTC bis 19 um 18 UTC
Wind 4 kt aus unterschiedlichen Richtungen
Sichtweite 10 km oder mehr
Leicht bewölkt in der Höhe von 3500 ft
Wahrscheinlichkeit 30%
vom 19 um 13 UTC bis 19 um 18 UTC
Wind 10 kt aus Süd

TAF: EGTE 190759Z 1909/1918 VRB04KT 9999 FEW035 PROB30 1913/1918 19010KT

Wetterbeobachtungen und Prognosen von mehr als 4000 Flughäfen (METAR und TAF Bericht).

Die verfügbaren Stationen werden durch gelbe und rote Markierungen auf der Karte dargestellt.

Führen Sie die Maus auf sie, um den Namen der Station zu sehen.

Darauf klicken, um die Beobachtung von Wetterbeobachtungen und Prognosen zu sehen.

Um die Karte zu ändern : klicken Sie auf den grünen Tasten mit einem schwarzen Kreuz Zum Vergrößern, auf den grünen Button mit einem Gedankenstrich zu verkleinern, oder auf die grünen Pfeile für benachbarte Karten.


METAR-TAF: